Time;durP1;ratioP1;P1;durP2;ratioP2;P2;SDS_P1;SDS_P2;PMS_P1;PMS_P2;Temp;Humidity;BMP_temperature;BMP_pressure;BME280_temperature;BME280_humidity;BME280_pressure;Samples;Min_cycle;Max_cycle;Signal;HPM_P1;HPM_P2
2022/08/04 00:00:15;;;;;;;7.35;4.43;;;;;;;25.06;47.46;99654.09;5029378;28;20026;-37
2022/08/04 00:03:10;;;;;;;6.55;4.65;;;;;;;25.00;48.15;99668.88;5029245;28;20021;-36
2022/08/04 00:05:47;;;;;;;6.25;5.13;;;;;;;24.88;48.78;99666.66;5029874;28;20041;-36
2022/08/04 00:08:23;;;;;;;7.63;4.63;;;;;;;24.74;48.16;99653.84;5029856;28;20030;-37
2022/08/04 00:10:53;;;;;;;6.63;4.30;;;;;;;24.76;48.15;99667.94;5028886;28;20319;-37
2022/08/04 00:13:24;;;;;;;7.35;4.82;;;;;;;24.88;48.81;99663.94;5029211;28;20055;-37
2022/08/04 00:15:56;;;;;;;6.47;4.70;;;;;;;24.78;49.38;99671.16;5029619;28;20033;-37
2022/08/04 00:18:26;;;;;;;7.43;4.88;;;;;;;24.63;49.55;99676.88;5029184;28;20031;-37
2022/08/04 00:20:58;;;;;;;11.38;5.05;;;;;;;24.63;49.32;99679.59;5029454;28;20014;-37
2022/08/04 00:23:26;;;;;;;6.80;5.05;;;;;;;24.58;50.21;99680.50;5028268;28;20025;-37
2022/08/04 00:25:52;;;;;;;8.15;4.90;;;;;;;24.58;49.82;99666.13;5028309;28;20032;-36
2022/08/04 00:28:18;;;;;;;6.63;5.70;;;;;;;24.59;50.32;99684.81;5029015;28;20044;-37
2022/08/04 00:30:44;;;;;;;6.28;4.97;;;;;;;24.25;50.45;99674.22;5028514;28;20018;-37
2022/08/04 00:33:10;;;;;;;5.65;4.88;;;;;;;24.37;50.62;99679.22;5028880;28;20373;-37
2022/08/04 00:35:37;;;;;;;6.03;4.80;;;;;;;24.31;49.95;99680.38;5028921;28;20108;-37
2022/08/04 00:38:03;;;;;;;6.28;4.72;;;;;;;24.27;50.06;99687.50;5029322;28;20025;-35
2022/08/04 00:41:10;;;;;;;8.35;5.43;;;;;;;24.41;50.15;99682.94;5029093;28;20032;-38
2022/08/04 00:43:56;;;;;;;6.25;5.10;;;;;;;24.57;49.79;99694.41;5028341;28;20029;-37
2022/08/04 00:46:56;;;;;;;6.47;4.60;;;;;;;24.62;50.23;99697.03;5028797;28;20064;-37
2022/08/04 00:49:42;;;;;;;6.00;4.80;;;;;;;24.74;49.52;99689.19;5028659;28;20025;-37
2022/08/04 00:52:33;;;;;;;8.55;4.97;;;;;;;24.87;48.92;99684.09;5029318;28;20164;-37
2022/08/04 00:55:03;;;;;;;7.05;5.00;;;;;;;24.77;49.51;99690.53;5029293;28;20040;-35
2022/08/04 00:57:41;;;;;;;6.53;5.20;;;;;;;24.55;49.88;99691.19;5028885;28;20044;-36
2022/08/04 01:00:11;;;;;;;6.75;4.97;;;;;;;24.36;50.33;99688.47;5028441;28;20017;-36
2022/08/04 01:03:21;;;;;;;6.72;4.70;;;;;;;24.34;51.13;99685.22;5029144;28;20029;-37
2022/08/04 01:06:05;;;;;;;8.60;4.45;;;;;;;24.31;51.20;99689.38;5029415;28;20021;-37
2022/08/04 01:09:09;;;;;;;6.88;4.75;;;;;;;24.27;51.38;99691.03;5029659;28;20464;-37
2022/08/04 01:11:43;;;;;;;5.93;4.55;;;;;;;24.51;49.87;99690.97;5023550;28;20086;-37
2022/08/04 01:14:30;;;;;;;7.20;4.57;;;;;;;24.50;50.23;99697.50;5030705;28;20413;-37
2022/08/04 01:17:11;;;;;;;6.78;4.97;;;;;;;24.39;50.86;99696.84;5032485;28;20261;-37
2022/08/04 01:20:00;;;;;;;6.38;4.90;;;;;;;24.31;51.47;99688.53;5032776;28;20075;-37
2022/08/04 01:23:11;;;;;;;5.25;4.60;;;;;;;24.40;51.12;99700.34;5032599;28;20104;-37
2022/08/04 01:25:52;;;;;;;6.30;4.67;;;;;;;24.35;51.40;99693.09;5032499;28;20071;-37
2022/08/04 01:28:29;;;;;;;4.95;4.45;;;;;;;24.44;51.07;99695.13;5033292;28;20032;-37
2022/08/04 01:31:07;;;;;;;9.10;4.90;;;;;;;24.57;51.05;99699.84;5032604;28;20451;-38
2022/08/04 01:33:36;;;;;;;7.90;4.72;;;;;;;24.46;51.01;99688.28;5032749;28;20145;-37
2022/08/04 01:36:04;;;;;;;6.03;4.63;;;;;;;24.49;51.26;99693.13;5032606;28;20413;-37
2022/08/04 01:38:40;;;;;;;9.82;4.80;;;;;;;24.42;51.15;99694.63;5032521;28;20036;-37
2022/08/04 01:41:08;;;;;;;5.78;5.03;;;;;;;24.15;51.85;99693.41;5032194;28;20018;-37
2022/08/04 01:43:39;;;;;;;6.55;4.82;;;;;;;24.14;52.20;99698.03;5032207;28;20040;-37
2022/08/04 01:46:04;;;;;;;8.68;4.70;;;;;;;24.15;52.23;99699.66;5032100;28;20028;-37
2022/08/04 01:48:30;;;;;;;6.80;4.90;;;;;;;24.22;52.29;99698.47;5032762;28;20029;-35
2022/08/04 01:50:58;;;;;;;7.93;4.70;;;;;;;24.11;52.74;99693.19;5032372;28;20503;-37
2022/08/04 01:53:30;;;;;;;7.25;4.85;;;;;;;24.00;53.12;99680.84;5031217;28;20060;-37
2022/08/04 01:55:56;;;;;;;6.68;4.85;;;;;;;23.97;53.09;99690.41;5032777;28;20021;-36
2022/08/04 01:58:29;;;;;;;5.55;4.93;;;;;;;24.19;52.52;99683.56;5032611;28;20025;-36
2022/08/04 02:00:56;;;;;;;5.75;4.95;;;;;;;24.23;52.32;99689.22;5031861;28;20076;-36
2022/08/04 02:03:22;;;;;;;5.95;4.55;;;;;;;24.25;52.31;99685.09;5032124;28;20032;-36
2022/08/04 02:05:49;;;;;;;6.57;4.72;;;;;;;24.19;52.34;99689.78;5032315;28;20033;-36
2022/08/04 02:08:29;;;;;;;7.22;4.80;;;;;;;24.15;52.69;99687.97;5032889;28;20155;-36
2022/08/04 02:11:14;;;;;;;5.57;4.72;;;;;;;23.99;53.44;99681.97;5032498;28;20116;-36
2022/08/04 02:14:07;;;;;;;7.18;4.57;;;;;;;24.10;53.17;99686.13;5032146;28;20053;-36
2022/08/04 02:16:41;;;;;;;9.00;4.80;;;;;;;24.19;52.76;99691.72;5032515;28;20020;-36
2022/08/04 02:19:26;;;;;;;7.05;5.03;;;;;;;24.13;53.06;99695.63;5032061;28;20080;-36
2022/08/04 02:21:57;;;;;;;6.43;4.70;;;;;;;24.10;53.13;99696.19;5031828;28;20021;-36
2022/08/04 02:24:26;;;;;;;8.18;5.15;;;;;;;24.03;53.38;99702.00;5032190;28;20482;-36
2022/08/04 02:26:54;;;;;;;7.05;5.50;;;;;;;23.89;53.71;99691.06;5032284;28;20539;-36
2022/08/04 02:29:44;;;;;;;8.32;5.25;;;;;;;23.95;53.60;99698.06;5031898;28;20545;-36
2022/08/04 02:32:24;;;;;;;6.47;5.18;;;;;;;23.88;54.06;99708.47;5032035;28;20021;-36
2022/08/04 02:34:56;;;;;;;;;;;;;;;23.83;53.60;99697.66;5032793;28;20026;-36
2022/08/04 02:37:25;;;;;;;5.70;5.10;;;;;;;23.77;54.11;99690.66;5032295;28;19924;-36
2022/08/04 02:39:52;;;;;;;6.65;4.90;;;;;;;23.86;53.43;99686.22;5032003;28;20532;-36
2022/08/04 02:42:19;;;;;;;7.22;4.82;;;;;;;23.87;53.50;99690.53;5031307;28;20038;-36
2022/08/04 02:44:50;;;;;;;5.68;4.75;;;;;;;23.70;53.53;99688.28;5032051;28;20025;-37
2022/08/04 02:47:21;;;;;;;5.80;4.95;;;;;;;23.77;53.36;99696.09;5031645;28;20025;-37
2022/08/04 02:49:50;;;;;;;5.20;4.50;;;;;;;23.74;53.36;99697.50;5031060;28;20489;-37
2022/08/04 02:52:20;;;;;;;5.10;4.60;;;;;;;23.95;52.97;99694.50;5031619;28;20056;-36
2022/08/04 02:54:50;;;;;;;7.32;4.70;;;;;;;24.03;52.70;99701.19;5031586;28;20033;-37
2022/08/04 02:57:17;;;;;;;5.43;4.53;;;;;;;23.95;53.04;99697.22;5031196;28;20032;-37
2022/08/04 03:00:13;;;;;;;4.85;4.35;;;;;;;23.88;53.22;99694.88;5050026;28;20063;-37
2022/08/04 03:03:04;;;;;;;6.30;4.65;;;;;;;23.95;53.07;99700.78;5043373;28;20032;-37
2022/08/04 03:05:44;;;;;;;5.75;4.47;;;;;;;23.81;53.29;99702.56;5050783;28;20381;-36
2022/08/04 03:08:30;;;;;;;5.22;4.50;;;;;;;23.89;53.19;99704.63;5051538;28;20029;-36
2022/08/04 03:11:15;;;;;;;6.10;4.20;;;;;;;23.79;53.54;99702.88;5036304;28;20034;-36
2022/08/04 03:13:46;;;;;;;5.45;4.80;;;;;;;23.75;53.58;99706.44;5031422;28;20057;-36
2022/08/04 03:16:47;;;;;;;6.40;4.50;;;;;;;23.68;54.05;99704.06;5031272;28;20031;-37
2022/08/04 03:19:18;;;;;;;6.03;4.80;;;;;;;23.68;53.77;99706.78;4988964;28;20121;-37
2022/08/04 03:21:46;;;;;;;5.32;4.75;;;;;;;23.83;53.60;99708.53;5023238;28;20029;-37
2022/08/04 03:24:23;;;;;;;8.05;5.07;;;;;;;23.84;53.76;99703.91;5031105;28;20075;-37
2022/08/04 03:26:53;;;;;;;7.25;4.55;;;;;;;23.69;54.00;99708.41;5031179;28;20037;-37
2022/08/04 03:29:42;;;;;;;6.70;4.65;;;;;;;23.79;53.76;99710.22;5030837;28;20025;-37
2022/08/04 03:32:25;;;;;;;5.90;5.10;;;;;;;23.84;53.58;99718.31;5031203;28;20108;-36
2022/08/04 03:35:06;;;;;;;6.30;4.50;;;;;;;23.81;53.44;99714.25;5030655;28;20021;-37
2022/08/04 03:37:31;;;;;;;7.78;4.80;;;;;;;23.85;53.46;99713.69;5029719;28;20104;-37
2022/08/04 03:40:15;;;;;;;7.35;4.55;;;;;;;23.89;53.37;99715.50;5030301;28;20443;-37
2022/08/04 03:43:17;;;;;;;5.78;4.80;;;;;;;23.90;53.09;99713.63;5030462;28;20025;-37
2022/08/04 03:46:07;;;;;;;7.47;4.88;;;;;;;23.96;53.02;99718.66;5030736;28;20049;-36
2022/08/04 03:48:56;;;;;;;6.87;5.17;;;;;;;24.10;52.61;99713.31;5030889;28;20096;-37
2022/08/04 03:55:14;;;;;;;7.38;5.18;;;;;;;24.33;52.18;99716.22;5030980;28;20087;-35
2022/08/04 03:58:18;;;;;;;10.20;4.53;;;;;;;24.43;51.43;99712.53;5020025;28;20030;-36
2022/08/04 04:01:05;;;;;;;6.13;4.75;;;;;;;24.57;51.19;99697.13;5048233;28;20492;-36
2022/08/04 04:03:52;;;;;;;8.18;4.60;;;;;;;24.81;50.30;99713.31;5049789;28;20103;-37
2022/08/04 04:06:33;;;;;;;6.13;4.60;;;;;;;24.96;49.66;99709.53;5049643;28;20802;-36
2022/08/04 04:09:31;;;;;;;7.55;4.25;;;;;;;25.33;48.65;99713.19;5049247;28;20029;-43
2022/08/04 04:12:13;;;;;;;6.07;4.68;;;;;;;25.54;48.03;99711.66;5040054;28;20069;-41
2022/08/04 04:14:58;;;;;;;12.32;9.45;;;;;;;25.72;47.72;99709.94;5029248;28;20033;-44
2022/08/04 04:17:45;;;;;;;7.78;6.30;;;;;;;25.66;47.42;99722.03;5028953;28;20025;-40
2022/08/04 04:20:35;;;;;;;6.05;4.57;;;;;;;25.51;47.79;99720.47;5028224;28;20401;-44
2022/08/04 04:23:37;;;;;;;6.35;4.90;;;;;;;25.64;47.06;99721.53;5031239;28;20107;-42
2022/08/04 04:26:20;;;;;;;7.10;5.00;;;;;;;25.93;46.66;99720.41;5048490;28;20036;-43
2022/08/04 04:28:54;;;;;;;7.88;4.80;;;;;;;26.32;46.32;99721.72;5033315;28;20108;-43
2022/08/04 04:31:58;;;;;;;7.75;4.53;;;;;;;26.45;45.54;99725.53;5034988;28;20112;-42
2022/08/04 04:34:30;;;;;;;6.10;4.30;;;;;;;26.76;45.18;99727.50;5047447;28;20033;-42
2022/08/04 04:37:16;;;;;;;9.02;5.05;;;;;;;26.97;44.80;99733.25;5048156;28;20181;-37
2022/08/04 04:39:44;;;;;;;7.95;4.55;;;;;;;27.13;44.41;99730.91;5048587;28;20029;-37
2022/08/04 04:42:34;;;;;;;7.43;4.68;;;;;;;27.44;43.43;99725.44;5048608;28;20043;-37
2022/08/04 04:45:22;;;;;;;6.55;4.60;;;;;;;27.88;42.38;99720.88;5048762;28;20033;-37
2022/08/04 04:48:08;;;;;;;7.85;4.50;;;;;;;28.17;41.93;99730.44;5048276;28;20726;-37
2022/08/04 04:50:46;;;;;;;5.30;4.07;;;;;;;28.21;41.98;99729.44;5048337;28;20036;-35
2022/08/04 04:53:18;;;;;;;5.00;4.50;;;;;;;28.65;40.92;99734.91;5042469;28;20041;-35
2022/08/04 04:55:51;;;;;;;5.70;4.15;;;;;;;28.88;40.56;99740.19;5028600;28;20164;-36
2022/08/04 04:58:19;;;;;;;10.98;4.53;;;;;;;29.61;39.34;99734.59;5038387;28;20037;-42
2022/08/04 05:00:56;;;;;;;5.93;4.07;;;;;;;29.56;38.93;99743.81;5045867;28;20040;-43
2022/08/04 05:03:37;;;;;;;6.25;4.13;;;;;;;29.51;39.19;99740.44;5047636;28;20029;-44
2022/08/04 05:06:14;;;;;;;4.97;4.20;;;;;;;29.77;38.53;99741.13;5048089;28;20036;-43
2022/08/04 05:08:57;;;;;;;4.63;3.88;;;;;;;30.16;37.85;99741.03;5048231;28;20025;-42
2022/08/04 05:11:40;;;;;;;6.10;3.90;;;;;;;30.29;37.31;99744.63;5029568;28;20635;-43
2022/08/04 05:14:19;;;;;;;4.00;3.58;;;;;;;30.76;35.99;99742.44;5028441;28;20045;-42
2022/08/04 05:16:58;;;;;;;4.22;3.70;;;;;;;30.09;37.39;99747.06;5027977;28;20108;-43
2022/08/04 05:19:33;;;;;;;4.40;3.65;;;;;;;30.17;37.02;99746.16;5027946;28;20029;-42
2022/08/04 05:22:09;;;;;;;6.43;3.75;;;;;;;30.56;36.36;99746.84;5026419;28;20021;-43
2022/08/04 05:24:39;;;;;;;5.78;3.55;;;;;;;30.83;35.88;99754.84;5027055;28;20025;-43
2022/08/04 05:27:14;;;;;;;6.40;3.75;;;;;;;31.91;34.36;99748.16;5027217;28;20064;-43
2022/08/04 05:29:53;;;;;;;6.32;3.75;;;;;;;31.72;34.41;99746.81;5026931;28;20079;-43
2022/08/04 05:32:23;;;;;;;9.93;4.28;;;;;;;31.83;34.18;99744.38;5027070;28;20033;-44
2022/08/04 05:34:59;;;;;;;7.95;4.78;;;;;;;31.85;34.16;99739.34;5027609;28;20021;-37
2022/08/04 05:37:27;;;;;;;6.10;4.30;;;;;;;32.01;33.79;99744.94;5028200;28;20479;-37
2022/08/04 05:39:59;;;;;;;4.07;3.67;;;;;;;32.35;32.98;99745.56;5028489;28;20017;-36
2022/08/04 05:42:27;;;;;;;8.40;4.25;;;;;;;32.14;33.88;99746.53;5028361;28;20021;-36
2022/08/04 05:44:54;;;;;;;9.38;3.67;;;;;;;32.11;34.23;99751.94;5028323;28;20036;-36
2022/08/04 05:47:20;;;;;;;9.02;3.72;;;;;;;32.17;33.58;99749.75;5028434;28;20072;-37
2022/08/04 05:49:47;;;;;;;6.28;3.63;;;;;;;32.26;33.08;99756.69;5027692;28;20113;-36
2022/08/04 05:52:13;;;;;;;4.05;3.55;;;;;;;32.11;33.09;99751.94;5027848;28;20077;-37
2022/08/04 05:54:41;;;;;;;4.90;3.55;;;;;;;31.80;33.61;99747.06;5028311;28;20033;-36
2022/08/04 05:57:07;;;;;;;4.28;3.53;;;;;;;30.14;36.23;99755.09;5028542;28;20059;-37
2022/08/04 05:59:37;;;;;;;6.10;3.60;;;;;;;30.07;36.34;99754.81;5049407;28;20035;-36
2022/08/04 06:02:03;;;;;;;7.78;3.70;;;;;;;29.56;37.32;99751.22;5051079;28;20028;-37
2022/08/04 06:04:50;;;;;;;4.75;3.70;;;;;;;29.60;37.43;99750.22;5051891;28;20100;-37
2022/08/04 06:07:16;;;;;;;5.90;3.80;;;;;;;30.32;36.48;99757.72;5051435;28;20031;-37
2022/08/04 06:09:42;;;;;;;5.72;3.65;;;;;;;29.94;36.98;99744.91;5045660;28;20087;-37
2022/08/04 06:12:17;;;;;;;4.63;4.00;;;;;;;29.88;37.39;99741.56;5031544;28;20505;-36
2022/08/04 06:14:46;;;;;;;8.07;3.70;;;;;;;30.10;37.00;99748.66;5032779;28;20080;-37
2022/08/04 06:17:20;;;;;;;7.43;3.95;;;;;;;30.31;36.57;99751.41;5043675;28;20124;-37
2022/08/04 06:19:48;;;;;;;7.28;3.67;;;;;;;30.64;35.45;99745.16;5051380;28;20028;-37
2022/08/04 06:22:16;;;;;;;10.45;4.38;;;;;;;31.63;34.45;99743.38;5051750;28;20025;-37
2022/08/04 06:24:46;;;;;;;5.80;3.85;;;;;;;31.59;34.28;99749.91;5050707;28;20066;-37
2022/08/04 06:27:13;;;;;;;5.13;3.83;;;;;;;31.82;34.17;99750.25;5050963;28;20025;-36
2022/08/04 06:29:40;;;;;;;5.72;3.63;;;;;;;32.08;33.81;99744.34;5050000;28;20029;-36
2022/08/04 06:32:23;;;;;;;4.57;3.85;;;;;;;32.48;33.02;99744.34;5050849;28;20039;-37
2022/08/04 06:34:53;;;;;;;8.57;4.20;;;;;;;32.62;33.90;99743.97;5050828;28;20021;-38
2022/08/04 06:37:20;;;;;;;7.38;3.90;;;;;;;33.27;32.02;99732.66;5051038;28;20035;-37
2022/08/04 06:39:47;;;;;;;6.15;4.60;;;;;;;32.89;32.55;99739.56;5048299;28;20021;-37
2022/08/04 06:42:12;;;;;;;9.35;4.25;;;;;;;32.83;32.64;99740.19;5048636;28;20331;-37
2022/08/04 06:44:41;;;;;;;5.32;4.13;;;;;;;33.18;32.24;99740.31;5048532;28;20108;-36
2022/08/04 06:47:07;;;;;;;6.28;3.90;;;;;;;33.57;32.07;99745.19;5048524;28;20481;-37
2022/08/04 06:49:35;;;;;;;6.63;4.00;;;;;;;33.88;31.48;99744.31;5048447;28;20181;-37
2022/08/04 06:52:02;;;;;;;8.98;4.00;;;;;;;34.33;30.88;99756.75;5048383;28;20025;-37
2022/08/04 06:54:28;;;;;;;20.02;8.70;;;;;;;33.79;31.88;99747.28;5049995;28;20028;-37
2022/08/04 06:56:57;;;;;;;4.22;3.70;;;;;;;33.69;31.01;99743.13;5050388;28;20029;-36
2022/08/04 06:59:23;;;;;;;9.15;4.00;;;;;;;33.91;31.06;99742.78;5033699;28;20029;-38
2022/08/04 07:01:51;;;;;;;4.28;3.70;;;;;;;34.17;31.38;99737.47;5028786;28;20037;-37
2022/08/04 07:04:18;;;;;;;4.65;3.70;;;;;;;35.22;29.50;99732.75;5029930;28;20018;-36
2022/08/04 07:06:43;;;;;;;5.38;3.53;;;;;;;34.64;29.58;99733.66;5030091;28;20078;-36
2022/08/04 07:09:09;;;;;;;4.97;3.50;;;;;;;34.65;29.98;99739.97;5029226;28;20029;-36
2022/08/04 07:11:35;;;;;;;7.03;3.40;;;;;;;34.78;29.47;99735.13;5028883;28;20025;-36
2022/08/04 07:14:02;;;;;;;6.60;3.60;;;;;;;35.26;28.74;99732.78;5029760;28;20068;-36
2022/08/04 07:16:29;;;;;;;7.43;3.60;;;;;;;35.13;29.29;99739.66;5030196;28;20037;-37
2022/08/04 07:18:54;;;;;;;3.88;3.47;;;;;;;35.31;28.69;99737.22;5038318;28;20052;-36
2022/08/04 07:21:26;;;;;;;4.82;3.70;;;;;;;35.18;28.65;99729.09;5038848;28;20048;-37
2022/08/04 07:23:51;;;;;;;5.30;3.33;;;;;;;35.10;28.78;99730.13;5039495;28;20052;-37
2022/08/04 07:26:18;;;;;;;3.50;3.17;;;;;;;35.40;28.19;99735.00;5038393;28;20052;-37
2022/08/04 07:28:44;;;;;;;5.57;3.33;;;;;;;35.76;27.94;99728.03;5039540;28;20040;-36
2022/08/04 07:31:14;;;;;;;5.70;3.83;;;;;;;36.47;26.96;99735.66;5041050;28;20020;-36
2022/08/04 07:33:41;;;;;;;5.55;3.83;;;;;;;36.00;27.38;99739.81;5039380;28;20025;-36
2022/08/04 07:36:07;;;;;;;6.50;4.73;;;;;;;35.95;27.18;99729.09;5040660;28;20099;-36
2022/08/04 07:38:32;;;;;;;7.70;4.00;;;;;;;35.76;27.93;99736.34;5040597;28;20470;-36
2022/08/04 07:40:58;;;;;;;6.95;3.38;;;;;;;36.07;27.74;99728.03;5037038;28;20465;-36
2022/08/04 07:43:26;;;;;;;6.13;3.78;;;;;;;36.16;27.40;99734.09;5042248;28;20020;-36
2022/08/04 07:45:52;;;;;;;3.78;3.35;;;;;;;36.32;26.41;99728.38;5040113;28;20027;-36
2022/08/04 07:48:17;;;;;;;5.72;3.17;;;;;;;35.95;27.33;99732.66;5039210;28;20029;-36
2022/08/04 07:50:44;;;;;;;4.85;3.55;;;;;;;36.13;27.10;99730.09;5043478;28;20017;-37
2022/08/04 07:53:11;;;;;;;4.85;3.63;;;;;;;36.63;26.21;99726.31;5039187;28;20036;-37
2022/08/04 07:55:37;;;;;;;5.37;4.57;;;;;;;36.84;26.39;99726.53;5049479;28;20473;-37
2022/08/04 07:58:02;;;;;;;4.57;3.72;;;;;;;36.69;26.00;99720.09;5049789;28;20021;-38
2022/08/04 08:00:28;;;;;;;7.43;3.65;;;;;;;36.36;26.92;99721.69;5048952;28;20032;-37
2022/08/04 08:02:55;;;;;;;3.78;3.45;;;;;;;36.45;26.62;99721.38;5048563;28;20031;-37
2022/08/04 08:05:21;;;;;;;6.88;3.92;;;;;;;36.82;26.44;99723.34;5047761;28;20100;-36
2022/08/04 08:07:49;;;;;;;8.38;3.25;;;;;;;36.88;25.36;99716.31;5048866;28;20076;-37
2022/08/04 08:10:15;;;;;;;7.87;4.00;;;;;;;37.28;25.51;99708.31;5048847;28;20062;-37
2022/08/04 08:12:42;;;;;;;4.85;3.83;;;;;;;35.66;26.85;99705.72;5049382;28;20049;-37
2022/08/04 08:15:11;;;;;;;5.28;3.30;;;;;;;35.69;27.21;99705.81;5049489;28;20477;-36
2022/08/04 08:17:37;;;;;;;4.72;3.15;;;;;;;36.08;27.22;99705.53;5048909;28;20453;-36
2022/08/04 08:20:05;;;;;;;4.55;3.45;;;;;;;36.44;26.19;99700.38;5048685;28;20077;-37
2022/08/04 08:22:31;;;;;;;3.63;3.30;;;;;;;36.71;25.78;99705.81;5048033;28;20252;-37
2022/08/04 08:24:56;;;;;;;6.00;3.45;;;;;;;37.00;25.25;99695.81;5047921;28;20194;-36
2022/08/04 08:27:22;;;;;;;5.80;3.40;;;;;;;37.15;25.76;99699.53;5048827;28;20016;-38
2022/08/04 08:29:48;;;;;;;4.68;3.20;;;;;;;37.06;25.69;99691.50;5043967;28;20028;-38
2022/08/04 08:32:14;;;;;;;6.15;4.05;;;;;;;36.98;25.69;99701.72;5028007;28;20033;-36
2022/08/04 08:34:41;;;;;;;5.00;3.20;;;;;;;37.20;25.39;99703.91;5029024;28;20724;-35
2022/08/04 08:37:31;;;;;;;5.35;3.10;;;;;;;37.04;24.64;99701.38;5029354;28;20128;-36
2022/08/04 08:40:18;;;;;;;7.93;2.63;;;;;;;37.44;23.30;99700.50;5041801;28;20090;-37
2022/08/04 08:42:54;;;;;;;4.72;2.95;;;;;;;36.89;24.04;99694.91;5047621;28;20025;-37
2022/08/04 08:46:10;;;;;;;5.00;2.55;;;;;;;36.77;24.03;99696.78;5047367;28;20037;-37
2022/08/04 08:48:48;;;;;;;2.92;2.63;;;;;;;36.94;24.32;99700.91;5024229;28;20037;-43
2022/08/04 08:51:23;;;;;;;4.32;2.65;;;;;;;36.87;22.64;99692.53;5043655;28;20111;-42
2022/08/04 08:54:26;;;;;;;3.90;2.90;;;;;;;36.66;23.76;99697.88;5048209;28;20403;-44
2022/08/04 08:57:10;;;;;;;4.80;2.67;;;;;;;37.44;23.00;99686.63;5048528;28;20033;-42
2022/08/04 08:59:54;;;;;;;9.00;2.85;;;;;;;36.16;24.01;99679.50;5047655;28;20159;-47
2022/08/04 09:02:40;;;;;;;6.82;2.88;;;;;;;36.42;23.83;99688.88;5047375;28;20044;-44
2022/08/04 09:05:41;;;;;;;3.63;2.30;;;;;;;35.79;23.49;99680.22;5045792;28;20040;-45
2022/08/04 09:08:22;;;;;;;4.20;2.50;;;;;;;36.31;23.05;99672.19;5046297;28;20083;-46
2022/08/04 09:11:00;;;;;;;6.00;2.35;;;;;;;36.74;22.37;99680.13;5045819;28;20041;-43
2022/08/04 09:13:34;;;;;;;3.00;2.40;;;;;;;37.86;21.72;99673.38;5046778;28;20520;-43
2022/08/04 09:16:13;;;;;;;4.85;2.45;;;;;;;37.17;22.44;99672.19;5046865;28;20485;-44
2022/08/04 09:18:44;;;;;;;3.20;2.33;;;;;;;37.09;22.55;99663.00;5047807;28;20511;-46
2022/08/04 09:21:30;;;;;;;5.07;2.50;;;;;;;36.74;22.48;99663.50;5048188;28;20028;-45
2022/08/04 09:24:27;;;;;;;3.72;2.60;;;;;;;36.59;22.55;99666.13;5046326;28;20079;-46
2022/08/04 09:27:04;;;;;;;2.72;2.40;;;;;;;36.79;22.32;99654.84;5048009;28;20028;-47
2022/08/04 09:30:04;;;;;;;4.05;2.50;;;;;;;37.84;21.87;99659.91;5047804;28;20116;-44
2022/08/04 09:32:43;;;;;;;3.83;2.58;;;;;;;37.46;22.02;99645.41;5042174;28;20079;-42
2022/08/04 09:35:32;;;;;;;3.42;2.50;;;;;;;37.48;21.64;99650.59;5051628;28;20061;-44
2022/08/04 09:38:10;;;;;;;5.18;2.72;;;;;;;37.41;21.10;99656.09;5052635;28;20145;-43
2022/08/04 09:41:05;;;;;;;4.70;2.40;;;;;;;37.22;21.77;99638.53;5051671;28;20029;-42
2022/08/04 09:43:55;;;;;;;3.63;2.70;;;;;;;37.59;21.81;99648.66;5050284;28;20017;-42
2022/08/04 09:46:25;;;;;;;18.55;3.50;;;;;;;38.62;20.81;99652.19;5051597;28;20139;-43
2022/08/04 09:48:57;;;;;;;10.35;3.13;;;;;;;38.08;20.63;99643.72;5036165;28;20026;-44
2022/08/04 09:51:52;;;;;;;3.78;2.42;;;;;;;37.50;21.52;99651.00;5030835;28;20025;-43
2022/08/04 09:54:44;;;;;;;5.28;2.40;;;;;;;37.40;21.77;99644.19;5031446;28;20116;-45
2022/08/04 09:57:21;;;;;;;3.50;2.42;;;;;;;37.37;21.53;99648.53;5031884;28;20033;-43
2022/08/04 10:00:02;;;;;;;3.15;2.40;;;;;;;37.55;21.49;99653.41;5031544;28;20017;-42
2022/08/04 10:02:33;;;;;;;2.88;2.40;;;;;;;37.56;21.17;99627.22;5031476;28;20029;-46
2022/08/04 10:05:02;;;;;;;5.38;2.47;;;;;;;38.28;20.75;99638.63;5029836;28;20018;-43
2022/08/04 10:08:01;;;;;;;4.95;2.60;;;;;;;38.00;20.99;99637.31;5031012;28;20087;-43
2022/08/04 10:10:29;;;;;;;2.65;2.30;;;;;;;37.82;20.81;99639.28;5030789;28;20367;-43
2022/08/04 10:13:13;;;;;;;4.63;2.15;;;;;;;37.55;20.49;99631.19;5030316;28;20207;-43
2022/08/04 10:16:06;;;;;;;4.97;2.50;;;;;;;37.70;20.46;99640.38;5031063;28;20022;-43
2022/08/04 10:18:32;;;;;;;4.40;2.50;;;;;;;37.80;20.29;99633.31;5030980;28;20520;-43
2022/08/04 10:21:22;;;;;;;3.17;2.65;;;;;;;37.46;20.48;99622.44;5030807;28;20021;-43
2022/08/04 10:24:19;;;;;;;7.95;5.03;;;;;;;37.06;20.90;99613.84;5029939;28;20481;-42
2022/08/04 10:26:57;;;;;;;2.90;2.58;;;;;;;36.70;21.17;99618.34;5030162;28;20052;-42
2022/08/04 10:29:42;;;;;;;4.23;2.40;;;;;;;36.98;21.02;99615.78;5035442;28;20032;-42
2022/08/04 10:32:14;;;;;;;4.80;2.35;;;;;;;37.04;21.00;99576.59;5050027;28;20270;-44
2022/08/04 10:35:00;;;;;;;3.15;2.55;;;;;;;37.55;20.67;99618.13;5049108;28;20021;-42
2022/08/04 10:38:00;;;;;;;3.83;2.30;;;;;;;38.45;19.30;99617.63;5050196;28;20025;-44
2022/08/04 10:40:46;;;;;;;2.50;2.30;;;;;;;38.58;19.05;99601.38;5049730;28;20397;-43
2022/08/04 10:43:36;;;;;;;2.75;2.40;;;;;;;37.88;19.72;99601.59;5048870;28;20313;-43
2022/08/04 10:46:08;;;;;;;;;;;;;;;37.79;20.15;99598.41;5050416;28;20025;-43
2022/08/04 10:48:52;;;;;;;4.43;2.45;;;;;;;38.01;20.28;99599.28;5050143;28;19909;-42
2022/08/04 10:51:28;;;;;;;2.80;2.40;;;;;;;37.73;20.62;99584.91;5049576;28;20044;-42
2022/08/04 10:54:05;;;;;;;3.45;2.40;;;;;;;38.04;19.79;99582.63;5050918;28;20021;-45
2022/08/04 10:56:37;;;;;;;4.72;2.55;;;;;;;39.01;19.33;99585.44;5050035;28;20552;-44
2022/08/04 10:59:10;;;;;;;3.00;2.53;;;;;;;38.59;19.33;99581.50;5050245;28;20032;-42
2022/08/04 11:01:41;;;;;;;4.00;2.67;;;;;;;38.36;19.12;99587.44;5049610;28;20021;-43
2022/08/04 11:04:45;;;;;;;7.43;2.60;;;;;;;38.17;19.47;99583.03;5048573;28;20071;-45
2022/08/04 11:07:12;;;;;;;4.55;2.50;;;;;;;37.89;19.55;99576.22;5025301;28;20136;-43
2022/08/04 11:09:39;;;;;;;3.00;2.45;;;;;;;37.65;20.07;99572.19;5049730;28;20402;-43
2022/08/04 11:12:11;;;;;;;2.78;2.45;;;;;;;37.47;20.01;99574.06;5050342;28;20116;-42
2022/08/04 11:14:44;;;;;;;5.43;2.95;;;;;;;38.12;19.78;99580.69;5050653;28;20029;-43
2022/08/04 11:17:18;;;;;;;3.95;2.80;;;;;;;37.77;19.62;99573.03;5050141;28;20111;-43
2022/08/04 11:20:09;;;;;;;9.77;2.75;;;;;;;37.50;19.22;99567.75;5034316;28;20049;-42
2022/08/04 11:22:41;;;;;;;3.50;2.25;;;;;;;37.22;19.76;99565.63;5029284;28;20106;-42
2022/08/04 11:25:21;;;;;;;4.30;2.35;;;;;;;37.76;19.10;99558.34;5029111;28;20017;-43
2022/08/04 11:28:08;;;;;;;3.55;2.25;;;;;;;37.50;19.85;99551.88;5029702;28;20026;-45
2022/08/04 11:30:56;;;;;;;5.75;2.40;;;;;;;38.02;19.10;99554.41;5029235;28;20446;-47
2022/08/04 11:33:54;;;;;;;3.35;2.40;;;;;;;36.69;20.36;99550.22;5029542;28;20082;-44
2022/08/04 11:36:28;;;;;;;4.20;2.30;;;;;;;36.66;20.30;99542.69;5029384;28;20175;-44
2022/08/04 11:39:13;;;;;;;3.53;2.30;;;;;;;36.97;20.19;99544.84;5029143;28;20481;-46
2022/08/04 11:42:17;;;;;;;2.70;2.22;;;;;;;37.50;19.03;99537.22;5028826;28;20292;-43
2022/08/04 11:44:48;;;;;;;3.85;2.50;;;;;;;38.02;20.06;99532.22;5005459;28;20037;-42
2022/08/04 11:47:46;;;;;;;3.50;2.30;;;;;;;38.45;18.77;99528.69;5029123;28;20445;-43
2022/08/04 11:50:20;;;;;;;4.25;2.42;;;;;;;38.90;18.21;99524.28;5025198;28;20103;-43
2022/08/04 11:52:47;;;;;;;5.22;2.60;;;;;;;38.78;18.45;99521.91;5029655;28;20029;-43
2022/08/04 11:55:18;;;;;;;2.50;2.30;;;;;;;38.88;18.72;99518.31;5029467;28;20032;-44
2022/08/04 11:57:44;;;;;;;3.72;2.70;;;;;;;38.61;18.96;99509.63;5032174;28;20242;-44
2022/08/04 12:00:13;;;;;;;3.50;3.20;;;;;;;38.26;19.00;99519.56;5048651;28;20141;-43
2022/08/04 12:03:03;;;;;;;4.35;2.50;;;;;;;38.30;19.10;99514.00;5049061;28;20120;-47
2022/08/04 12:05:35;;;;;;;2.97;2.30;;;;;;;38.65;18.40;99504.06;5049796;28;20086;-45
2022/08/04 12:08:39;;;;;;;3.03;2.38;;;;;;;39.46;17.62;99501.47;5050115;28;20381;-43
2022/08/04 12:11:23;;;;;;;2.58;2.38;;;;;;;39.04;17.92;99506.78;5049695;28;20033;-44
2022/08/04 12:14:41;;;;;;;2.88;2.50;;;;;;;38.69;18.69;99504.84;5049786;28;20049;-45
2022/08/04 12:17:08;;;;;;;2.40;2.20;;;;;;;38.87;18.17;99500.03;4995362;28;20063;-45
2022/08/04 12:20:08;;;;;;;4.15;2.50;;;;;;;38.65;18.22;99492.94;5050001;28;20467;-45
2022/08/04 12:22:46;;;;;;;4.10;2.25;;;;;;;38.02;18.12;99489.75;5047201;28;20174;-46